Time;durP1;ratioP1;P1;durP2;ratioP2;P2;SDS_P1;SDS_P2;PMS_P1;PMS_P2;Temp;Humidity;BMP_temperature;BMP_pressure;BME280_temperature;BME280_humidity;BME280_pressure;Samples;Min_cycle;Max_cycle;Signal;HPM_P1;HPM_P2
2023/05/14 00:01:04;;;;;;;14.23;11.13;;;11.10;94.00;;;;;;5025920;28;20072;-79
2023/05/14 00:03:30;;;;;;;15.80;12.63;;;11.00;99.90;;;;;;5024858;28;20060;-79
2023/05/14 00:05:55;;;;;;;18.05;12.52;;;10.90;97.80;;;;;;5040259;28;20373;-79
2023/05/14 00:08:21;;;;;;;9.55;7.47;;;10.90;99.30;;;;;;5009944;28;20040;-78
2023/05/14 00:10:47;;;;;;;14.60;11.43;;;10.90;99.50;;;;;;5024750;28;20033;-79
2023/05/14 00:13:12;;;;;;;11.65;9.18;;;11.20;98.60;;;;;;5025744;28;20076;-78
2023/05/14 00:15:38;;;;;;;15.88;10.90;;;11.20;97.70;;;;;;5016358;28;20565;-79
2023/05/14 00:18:04;;;;;;;12.55;10.68;;;11.10;98.20;;;;;;5026162;28;20077;-79
2023/05/14 00:20:29;;;;;;;11.50;10.32;;;11.30;97.80;;;;;;5026684;28;20075;-79
2023/05/14 00:22:55;;;;;;;11.65;10.43;;;11.10;97.80;;;;;;5039023;28;20086;-79
2023/05/14 00:25:20;;;;;;;9.60;7.93;;;10.90;98.20;;;;;;5026388;28;20029;-79
2023/05/14 00:27:46;;;;;;;12.18;9.73;;;10.90;98.20;;;;;;5007748;28;20057;-79
2023/05/14 00:30:12;;;;;;;13.82;10.95;;;10.80;98.30;;;;;;5029027;28;20115;-80
2023/05/14 00:32:37;;;;;;;9.35;8.02;;;10.70;98.40;;;;;;5024773;28;20121;-79
2023/05/14 00:35:03;;;;;;;9.52;7.47;;;10.70;98.60;;;;;;5008522;28;20036;-79
2023/05/14 00:37:29;;;;;;;12.27;10.73;;;10.90;98.50;;;;;;5042179;28;20033;-79
2023/05/14 00:39:55;;;;;;;11.02;9.90;;;10.80;98.10;;;;;;5039328;28;20112;-79
2023/05/14 00:42:20;;;;;;;14.40;10.82;;;10.70;98.60;;;;;;5019140;28;20068;-79
2023/05/14 00:44:46;;;;;;;13.57;10.63;;;10.60;99.10;;;;;;5008832;28;20025;-79
2023/05/14 00:47:11;;;;;;;11.85;10.65;;;10.50;99.70;;;;;;5025596;28;20358;-79
2023/05/14 00:49:38;;;;;;;12.75;10.38;;;10.40;99.90;;;;;;5025892;28;20037;-79
2023/05/14 00:52:04;;;;;;;12.63;10.65;;;10.40;99.90;;;;;;5022173;28;20076;-79
2023/05/14 00:54:30;;;;;;;13.82;10.70;;;10.50;99.90;;;;;;5025765;28;20044;-77
2023/05/14 00:56:55;;;;;;;11.38;10.18;;;10.50;99.90;;;;;;5025292;28;20158;-80
2023/05/14 00:59:21;;;;;;;11.48;10.30;;;10.30;99.90;;;;;;5026132;28;20082;-77
2023/05/14 01:01:46;;;;;;;12.38;9.38;;;10.30;99.90;;;;;;5024239;28;20040;-77
2023/05/14 01:04:12;;;;;;;13.88;10.68;;;10.30;99.90;;;;;;5010621;28;20365;-77
2023/05/14 01:06:56;;;;;;;10.88;8.60;;;10.20;99.90;;;;;;5008435;28;20021;-80
2023/05/14 01:09:40;;;;;;;7.40;6.70;;;10.20;99.90;;;;;;5026104;28;20067;-80
2023/05/14 01:12:17;;;;;;;11.80;10.57;;;10.20;99.90;;;;;;5037111;28;20045;-77
2023/05/14 01:14:56;;;;;;;11.18;8.52;;;10.10;99.90;;;;;;5024091;28;20384;-77
2023/05/14 01:17:22;;;;;;;11.20;7.35;;;10.20;99.90;;;;;;5025444;28;20044;-79
2023/05/14 01:19:47;;;;;;;12.57;9.85;;;10.10;99.90;;;;;;5007797;28;20036;-80
2023/05/14 01:22:13;;;;;;;12.63;10.00;;;10.00;99.90;;;;;;5009063;28;20506;-79
2023/05/14 01:24:38;;;;;;;12.43;10.95;;;9.90;99.90;;;;;;5024354;28;20075;-79
2023/05/14 01:27:27;;;;;;;12.00;10.10;;;9.80;99.90;;;;;;5007894;28;20090;-78
2023/05/14 01:30:01;;;;;;;14.48;9.93;;;9.50;99.90;;;;;;4977446;28;20055;-79
2023/05/14 01:32:27;;;;;;;16.70;10.60;;;9.70;99.90;;;;;;5007525;28;20061;-79
2023/05/14 01:34:52;;;;;;;14.30;10.43;;;9.70;99.90;;;;;;5007123;28;20144;-78
2023/05/14 01:37:18;;;;;;;10.55;9.45;;;9.70;99.90;;;;;;5007878;28;20021;-79
2023/05/14 01:39:43;;;;;;;15.30;10.52;;;9.60;99.90;;;;;;5008819;28;20059;-78
2023/05/14 01:42:09;;;;;;;13.02;11.27;;;9.60;99.90;;;;;;5035666;28;20048;-79
2023/05/14 01:44:34;;;;;;;11.32;10.07;;;9.50;99.90;;;;;;5024836;28;20132;-79
2023/05/14 01:47:00;;;;;;;12.27;10.95;;;9.40;99.90;;;;;;5024499;28;20040;-79
2023/05/14 01:49:25;;;;;;;16.75;10.80;;;9.40;99.90;;;;;;5025420;28;20024;-78
2023/05/14 01:51:51;;;;;;;12.07;10.45;;;9.70;99.90;;;;;;5024621;28;20083;-78
2023/05/14 01:54:16;;;;;;;11.95;9.20;;;9.70;99.90;;;;;;5040515;28;20041;-79
2023/05/14 01:56:42;;;;;;;12.40;11.02;;;9.80;99.90;;;;;;5026415;28;20041;-78
2023/05/14 01:59:08;;;;;;;9.40;8.43;;;9.90;99.90;;;;;;5039094;28;20049;-79
2023/05/14 02:01:33;;;;;;;9.20;8.20;;;9.90;99.90;;;;;;5007168;28;20033;-78
2023/05/14 02:03:59;;;;;;;9.05;7.40;;;9.90;99.90;;;;;;5023576;28;20086;-79
2023/05/14 02:06:25;;;;;;;10.07;9.07;;;9.90;99.90;;;;;;5025102;28;20473;-79
2023/05/14 02:08:51;;;;;;;15.00;10.68;;;9.70;99.90;;;;;;5040982;28;20043;-78
2023/05/14 02:11:16;;;;;;;14.38;11.70;;;9.00;99.90;;;;;;5008291;28;20033;-78
2023/05/14 02:13:42;;;;;;;9.85;8.75;;;9.10;99.90;;;;;;5007145;28;20060;-78
2023/05/14 02:16:08;;;;;;;13.85;11.40;;;9.40;99.90;;;;;;5022970;28;20068;-78
2023/05/14 02:18:33;;;;;;;12.93;10.10;;;9.30;99.90;;;;;;5024817;28;20374;-79
2023/05/14 02:20:59;;;;;;;12.45;11.23;;;9.10;99.90;;;;;;5024214;28;20489;-79
2023/05/14 02:23:25;;;;;;;14.50;11.65;;;9.20;99.90;;;;;;5024953;28;20037;-78
2023/05/14 02:25:50;;;;;;;13.73;11.52;;;8.80;99.90;;;;;;5023705;28;20035;-78
2023/05/14 02:28:16;;;;;;;14.63;11.73;;;8.80;99.90;;;;;;5025059;28;20033;-80
2023/05/14 02:30:41;;;;;;;12.13;10.90;;;8.80;99.90;;;;;;5023283;28;20068;-80
2023/05/14 02:33:07;;;;;;;18.52;12.35;;;8.80;99.90;;;;;;5019856;28;20028;-81
2023/05/14 02:35:32;;;;;;;12.98;11.68;;;8.70;99.90;;;;;;5006898;28;20044;-81
2023/05/14 02:37:58;;;;;;;13.00;11.10;;;8.60;99.90;;;;;;5007722;28;20040;-80
2023/05/14 02:40:24;;;;;;;13.48;11.70;;;8.70;99.90;;;;;;5024485;28;20534;-79
2023/05/14 02:42:49;;;;;;;14.70;12.55;;;8.70;99.90;;;;;;5038697;28;20041;-81
2023/05/14 02:45:15;;;;;;;13.15;11.75;;;8.60;99.90;;;;;;5008119;28;20025;-80
2023/05/14 02:47:42;;;;;;;13.80;9.77;;;8.70;99.90;;;;;;5024185;28;20033;-80
2023/05/14 02:50:08;;;;;;;12.80;11.45;;;8.70;99.90;;;;;;5023619;28;20102;-80
2023/05/14 02:52:34;;;;;;;14.13;12.20;;;8.70;99.90;;;;;;5027159;28;20033;-80
2023/05/14 02:54:59;;;;;;;16.60;11.68;;;8.70;99.90;;;;;;5027359;28;20029;-80
2023/05/14 02:57:25;;;;;;;14.73;12.15;;;8.70;99.90;;;;;;5045129;28;20033;-78
2023/05/14 02:59:50;;;;;;;15.02;12.73;;;8.70;99.90;;;;;;5044447;28;20029;-78
2023/05/14 03:02:16;;;;;;;21.17;11.93;;;8.60;99.90;;;;;;5028507;28;20036;-78
2023/05/14 03:04:41;;;;;;;15.48;11.40;;;8.60;99.90;;;;;;5044621;28;20136;-78
2023/05/14 03:07:07;;;;;;;17.63;12.95;;;8.30;99.90;;;;;;5028204;28;20059;-78
2023/05/14 03:09:32;;;;;;;15.52;12.73;;;8.30;99.90;;;;;;5026479;28;20733;-78
2023/05/14 03:11:59;;;;;;;15.95;11.65;;;8.50;99.90;;;;;;5025297;28;20404;-78
2023/05/14 03:14:24;;;;;;;15.85;12.52;;;8.50;99.90;;;;;;5026821;28;20033;-78
2023/05/14 03:16:50;;;;;;;15.07;13.07;;;8.60;99.90;;;;;;5023503;28;20791;-78
2023/05/14 03:19:15;;;;;;;15.68;12.93;;;8.40;99.90;;;;;;5010748;28;20412;-78
2023/05/14 03:21:41;;;;;;;16.58;12.32;;;8.40;99.90;;;;;;5026330;28;20036;-78
2023/05/14 03:24:07;;;;;;;14.75;12.68;;;8.30;99.90;;;;;;5000768;28;20040;-77
2023/05/14 03:26:32;;;;;;;14.70;12.68;;;8.30;99.90;;;;;;5043019;28;20060;-77
2023/05/14 03:28:58;;;;;;;15.93;12.95;;;8.30;99.90;;;;;;5009123;28;20025;-78
2023/05/14 03:31:23;;;;;;;13.23;11.85;;;8.20;99.90;;;;;;5041802;28;20025;-78
2023/05/14 03:33:49;;;;;;;14.63;12.93;;;8.20;99.90;;;;;;5028517;28;20102;-78
2023/05/14 03:36:14;;;;;;;16.33;13.07;;;8.20;99.90;;;;;;5041591;28;20033;-78
2023/05/14 03:38:40;;;;;;;17.73;12.90;;;8.20;99.90;;;;;;5024534;28;20113;-78
2023/05/14 03:41:06;;;;;;;18.20;14.00;;;8.20;99.90;;;;;;5024560;28;21019;-77
2023/05/14 03:43:31;;;;;;;20.17;13.40;;;8.30;99.90;;;;;;5011050;28;20464;-77
2023/05/14 03:45:57;;;;;;;17.58;13.05;;;8.20;99.90;;;;;;5042681;28;20115;-77
2023/05/14 03:48:22;;;;;;;16.50;13.65;;;8.30;99.90;;;;;;5010462;28;20088;-77
2023/05/14 03:50:48;;;;;;;15.57;12.85;;;8.30;99.90;;;;;;5026135;28;20044;-77
2023/05/14 03:53:13;;;;;;;14.10;12.60;;;8.30;99.90;;;;;;5023687;28;20138;-77
2023/05/14 03:55:39;;;;;;;14.02;12.55;;;8.30;99.90;;;;;;5025791;28;20131;-77
2023/05/14 03:58:09;;;;;;;13.57;11.57;;;8.20;99.90;;;;;;5024999;28;20477;-77
2023/05/14 04:00:35;;;;;;;11.63;10.43;;;8.20;99.90;;;;;;5043307;28;20083;-77
2023/05/14 04:03:00;;;;;;;13.80;11.43;;;8.30;99.90;;;;;;5038472;28;20033;-78
2023/05/14 04:05:26;;;;;;;11.82;9.50;;;8.40;99.90;;;;;;5009665;28;20037;-79
2023/05/14 04:07:51;;;;;;;12.25;10.23;;;8.50;99.90;;;;;;5026474;28;20029;-79
2023/05/14 04:10:17;;;;;;;16.65;12.00;;;8.40;99.90;;;;;;5008182;28;20036;-79
2023/05/14 04:12:43;;;;;;;14.43;12.65;;;8.30;99.90;;;;;;5008639;28;20038;-79
2023/05/14 04:15:09;;;;;;;13.95;12.18;;;8.10;99.90;;;;;;5026856;28;20054;-79
2023/05/14 04:17:34;;;;;;;11.27;10.07;;;8.10;99.90;;;;;;5041250;28;20033;-79
2023/05/14 04:20:00;;;;;;;16.50;12.35;;;8.30;99.90;;;;;;5040192;28;20040;-78
2023/05/14 04:22:25;;;;;;;16.30;12.52;;;8.20;99.90;;;;;;5023915;28;20065;-79
2023/05/14 04:24:52;;;;;;;15.50;13.43;;;8.20;99.90;;;;;;5009352;28;20036;-79
2023/05/14 04:27:20;;;;;;;15.13;13.25;;;8.20;99.90;;;;;;5025082;28;20032;-79
2023/05/14 04:29:46;;;;;;;17.98;13.38;;;8.20;99.90;;;;;;5019976;28;20561;-79
2023/05/14 04:32:12;;;;;;;17.55;13.75;;;8.40;99.90;;;;;;5008524;28;20523;-79
2023/05/14 04:34:38;;;;;;;14.80;12.77;;;8.50;99.90;;;;;;5026021;28;20029;-79
2023/05/14 04:37:04;;;;;;;19.27;13.40;;;8.60;99.90;;;;;;5025645;28;20033;-79
2023/05/14 04:39:29;;;;;;;19.40;14.30;;;8.60;99.90;;;;;;5025686;28;20029;-79
2023/05/14 04:41:55;;;;;;;19.33;15.13;;;8.70;99.90;;;;;;5038118;28;20087;-80
2023/05/14 04:44:20;;;;;;;20.75;15.70;;;8.80;99.90;;;;;;5010224;28;20067;-79
2023/05/14 04:46:46;;;;;;;19.85;16.83;;;8.90;99.90;;;;;;5024038;28;20103;-79
2023/05/14 04:49:12;;;;;;;22.23;19.33;;;9.00;99.90;;;;;;5024366;28;20025;-79
2023/05/14 04:51:37;;;;;;;26.40;17.98;;;9.10;99.90;;;;;;5024110;28;20021;-79
2023/05/14 04:54:03;;;;;;;26.00;19.20;;;9.30;99.90;;;;;;5042432;28;20032;-77
2023/05/14 04:56:28;;;;;;;25.25;19.63;;;9.50;99.90;;;;;;5025963;28;20435;-78
2023/05/14 04:58:54;;;;;;;26.17;21.23;;;9.60;99.90;;;;;;5040246;28;20034;-79
2023/05/14 05:01:21;;;;;;;25.50;19.55;;;9.70;99.90;;;;;;5009229;28;20024;-77
2023/05/14 05:03:46;;;;;;;31.75;22.33;;;9.90;99.90;;;;;;5008418;28;20032;-79
2023/05/14 05:06:12;;;;;;;31.75;23.00;;;10.10;99.90;;;;;;5040321;28;20033;-78
2023/05/14 05:08:37;;;;;;;36.63;23.85;;;10.30;99.90;;;;;;5026008;28;20179;-80
2023/05/14 05:11:03;;;;;;;34.30;24.70;;;10.40;99.90;;;;;;5008545;28;20021;-77
2023/05/14 05:13:29;;;;;;;31.00;24.30;;;10.50;99.90;;;;;;5009376;28;20610;-80
2023/05/14 05:15:54;;;;;;;30.48;23.30;;;10.60;99.90;;;;;;5040701;28;20045;-80
2023/05/14 05:18:20;;;;;;;27.33;21.58;;;10.70;99.90;;;;;;5008187;28;20033;-80
2023/05/14 05:20:46;;;;;;;28.00;21.90;;;10.70;99.90;;;;;;5024508;28;20025;-80
2023/05/14 05:23:11;;;;;;;26.55;20.58;;;10.80;99.90;;;;;;5024252;28;20505;-80
2023/05/14 05:25:37;;;;;;;25.73;21.35;;;10.80;99.90;;;;;;5008318;28;20055;-79
2023/05/14 05:28:02;;;;;;;23.02;20.02;;;10.80;99.90;;;;;;5040622;28;20025;-79
2023/05/14 05:30:29;;;;;;;23.42;19.40;;;10.80;99.90;;;;;;5025436;28;20028;-79
2023/05/14 05:32:55;;;;;;;22.52;18.88;;;10.80;99.90;;;;;;5041548;28;20106;-79
2023/05/14 05:35:21;;;;;;;21.60;19.17;;;10.80;99.90;;;;;;5010283;28;20029;-79
2023/05/14 05:37:46;;;;;;;22.50;18.88;;;10.90;99.90;;;;;;5024690;28;20029;-79
2023/05/14 05:40:13;;;;;;;25.85;20.95;;;11.00;99.90;;;;;;5040292;28;20033;-78
2023/05/14 05:42:39;;;;;;;20.40;17.80;;;11.20;99.90;;;;;;5024120;28;20044;-77
2023/05/14 05:45:06;;;;;;;23.05;20.52;;;11.30;99.90;;;;;;5038119;28;20072;-75
2023/05/14 05:47:31;;;;;;;26.15;21.23;;;11.50;99.90;;;;;;5024971;28;20058;-78
2023/05/14 05:49:57;;;;;;;24.27;21.65;;;11.70;99.90;;;;;;5024907;28;20477;-78
2023/05/14 05:52:22;;;;;;;25.67;19.88;;;11.90;99.90;;;;;;5040831;28;20388;-75
2023/05/14 05:54:48;;;;;;;20.58;18.38;;;12.10;99.90;;;;;;5024172;28;20116;-77
2023/05/14 05:57:14;;;;;;;17.63;15.52;;;12.30;99.90;;;;;;5040022;28;20036;-77
2023/05/14 05:59:39;;;;;;;18.35;14.52;;;12.50;99.90;;;;;;5023432;28;20120;-77
2023/05/14 06:02:05;;;;;;;13.80;11.90;;;12.70;99.90;;;;;;5022754;28;20040;-78
2023/05/14 06:04:30;;;;;;;13.32;11.93;;;13.00;99.90;;;;;;5039420;28;20112;-77
2023/05/14 06:06:56;;;;;;;15.95;12.07;;;13.10;99.90;;;;;;5023819;28;20485;-77
2023/05/14 06:09:22;;;;;;;13.00;11.60;;;13.40;99.90;;;;;;5039166;28;20484;-76
2023/05/14 06:11:47;;;;;;;13.73;11.20;;;13.50;99.90;;;;;;5005230;28;20383;-76
2023/05/14 06:14:13;;;;;;;10.27;9.15;;;13.70;99.90;;;;;;5041540;28;20025;-76
2023/05/14 06:16:38;;;;;;;12.10;10.35;;;13.90;99.90;;;;;;5023301;28;20017;-75
2023/05/14 06:19:05;;;;;;;13.73;10.18;;;14.10;99.90;;;;;;5039946;28;20078;-76
2023/05/14 06:21:30;;;;;;;10.88;8.25;;;14.30;99.90;;;;;;5024257;28;20389;-76
2023/05/14 06:23:56;;;;;;;13.35;9.10;;;14.50;99.90;;;;;;5040440;28;20037;-76
2023/05/14 06:26:22;;;;;;;10.65;9.18;;;14.70;99.90;;;;;;5027180;28;20485;-75
2023/05/14 06:28:47;;;;;;;12.18;9.48;;;14.90;99.90;;;;;;5023376;28;20039;-75
2023/05/14 06:31:13;;;;;;;10.63;9.57;;;15.20;99.90;;;;;;5024276;28;20063;-75
2023/05/14 06:33:38;;;;;;;9.65;8.63;;;15.30;99.90;;;;;;5044098;28;20029;-75
2023/05/14 06:36:04;;;;;;;9.00;8.00;;;15.60;99.90;;;;;;5027675;28;20048;-78
2023/05/14 06:38:30;;;;;;;11.75;8.40;;;15.80;99.90;;;;;;5026432;28;20047;-75
2023/05/14 06:40:56;;;;;;;8.90;6.97;;;16.10;99.90;;;;;;5046767;28;20116;-76
2023/05/14 06:43:21;;;;;;;10.10;7.68;;;16.30;99.90;;;;;;5027568;28;20056;-75
2023/05/14 06:45:50;;;;;;;10.52;8.10;;;16.50;99.90;;;;;;5026289;28;20033;-77
2023/05/14 06:48:17;;;;;;;10.68;7.60;;;16.80;99.90;;;;;;5017195;28;20033;-77
2023/05/14 06:50:46;;;;;;;7.50;6.78;;;16.90;99.90;;;;;;5027519;28;20045;-77
2023/05/14 06:53:11;;;;;;;8.23;6.25;;;17.20;99.90;;;;;;5042960;28;20499;-77
2023/05/14 06:55:37;;;;;;;10.10;6.90;;;17.30;99.90;;;;;;5026341;28;20116;-77
2023/05/14 06:58:05;;;;;;;8.85;6.55;;;17.50;99.90;;;;;;5027296;28;20065;-78
2023/05/14 07:00:30;;;;;;;7.00;6.22;;;17.70;99.90;;;;;;5043855;28;20043;-78
2023/05/14 07:02:56;;;;;;;7.88;6.65;;;17.80;99.90;;;;;;5026965;28;20032;-76
2023/05/14 07:05:21;;;;;;;6.57;5.97;;;18.10;99.90;;;;;;5027203;28;20087;-77
2023/05/14 07:07:47;;;;;;;5.50;5.00;;;18.30;99.90;;;;;;5008836;28;20040;-77
2023/05/14 07:10:13;;;;;;;5.90;5.30;;;18.50;99.90;;;;;;5027726;28;20036;-75
2023/05/14 07:12:38;;;;;;;8.95;5.28;;;18.60;99.90;;;;;;5026427;28;20228;-76
2023/05/14 07:15:04;;;;;;;5.53;4.85;;;18.70;99.90;;;;;;5017500;28;20037;-77
2023/05/14 07:17:30;;;;;;;5.40;4.75;;;19.00;99.90;;;;;;5038098;28;20017;-77
2023/05/14 07:19:55;;;;;;;6.07;4.63;;;19.10;99.90;;;;;;5026233;28;20425;-77
2023/05/14 07:22:21;;;;;;;6.07;5.00;;;19.30;99.90;;;;;;5043878;28;20485;-77
2023/05/14 07:24:48;;;;;;;7.65;5.03;;;19.50;99.90;;;;;;5041549;28;20986;-77
2023/05/14 07:27:13;;;;;;;4.85;4.43;;;19.70;99.90;;;;;;5042215;28;20075;-77
2023/05/14 07:29:39;;;;;;;5.38;4.47;;;19.90;99.90;;;;;;5008312;28;20075;-77
2023/05/14 07:32:04;;;;;;;4.93;4.25;;;20.00;99.90;;;;;;5008714;28;20044;-78
2023/05/14 07:34:30;;;;;;;6.18;5.20;;;20.10;99.90;;;;;;5024098;28;20504;-78
2023/05/14 07:36:55;;;;;;;5.20;4.60;;;20.30;99.90;;;;;;5042174;28;20116;-77
2023/05/14 07:39:21;;;;;;;6.72;4.78;;;20.60;99.90;;;;;;5009978;28;20121;-77
2023/05/14 07:41:48;;;;;;;5.97;4.57;;;20.70;99.90;;;;;;5025342;28;20065;-76
2023/05/14 07:44:14;;;;;;;6.43;5.35;;;20.90;99.90;;;;;;5027711;28;20480;-76
2023/05/14 07:46:40;;;;;;;5.55;4.55;;;21.00;99.90;;;;;;5026840;28;20097;-77
2023/05/14 07:49:06;;;;;;;6.07;5.47;;;21.20;99.90;;;;;;5008715;28;20049;-77
2023/05/14 07:51:32;;;;;;;8.50;5.00;;;21.40;99.90;;;;;;5023981;28;20037;-76
2023/05/14 07:53:57;;;;;;;9.73;4.97;;;21.60;99.90;;;;;;5025280;28;20029;-77
2023/05/14 07:56:23;;;;;;;5.45;4.95;;;21.80;99.90;;;;;;5043728;28;20456;-76
2023/05/14 07:58:49;;;;;;;5.15;4.65;;;22.00;99.90;;;;;;5042678;28;20551;-76
2023/05/14 08:01:15;;;;;;;6.32;4.00;;;22.20;99.90;;;;;;5006467;28;20087;-76
2023/05/14 08:03:40;;;;;;;7.00;3.88;;;22.30;99.90;;;;;;5026052;28;20485;-77
2023/05/14 08:06:06;;;;;;;7.88;4.55;;;22.20;99.90;;;;;;5025297;28;20064;-75
2023/05/14 08:08:32;;;;;;;5.68;3.60;;;22.40;99.90;;;;;;5009179;28;20057;-76
2023/05/14 08:10:57;;;;;;;5.18;3.90;;;22.60;99.90;;;;;;5025437;28;20672;-77
2023/05/14 08:13:23;;;;;;;3.40;3.10;;;22.80;99.90;;;;;;5003413;28;20041;-76
2023/05/14 08:15:48;;;;;;;4.20;3.80;;;22.50;99.90;;;;;;5009065;28;20033;-76
2023/05/14 08:18:14;;;;;;;4.90;4.10;;;22.70;99.90;;;;;;5027440;28;20028;-76
2023/05/14 08:20:39;;;;;;;3.65;3.33;;;23.10;99.90;;;;;;5026201;28;20392;-78
2023/05/14 08:23:06;;;;;;;5.53;5.03;;;23.30;99.90;;;;;;5025332;28;20042;-76
2023/05/14 08:25:32;;;;;;;4.07;3.40;;;23.40;99.90;;;;;;5009382;28;20033;-75
2023/05/14 08:27:58;;;;;;;5.15;3.00;;;23.70;99.90;;;;;;5039662;28;20029;-78
2023/05/14 08:30:24;;;;;;;3.80;3.13;;;23.80;99.90;;;;;;5042529;28;20035;-76
2023/05/14 08:32:50;;;;;;;5.60;2.85;;;23.90;99.90;;;;;;5024576;28;20025;-76
2023/05/14 08:35:16;;;;;;;11.98;3.10;;;24.30;99.90;;;;;;5026221;28;20443;-76
2023/05/14 08:37:42;;;;;;;3.53;3.00;;;24.70;98.40;;;;;;5006699;28;20029;-77
2023/05/14 08:40:08;;;;;;;3.72;3.13;;;24.60;97.50;;;;;;5022150;28;20396;-76
2023/05/14 08:42:34;;;;;;;3.17;2.63;;;24.60;97.70;;;;;;5024278;28;20119;-76
2023/05/14 08:45:00;;;;;;;4.57;3.00;;;24.70;96.70;;;;;;5041391;28;20108;-76
2023/05/14 08:47:26;;;;;;;2.65;2.40;;;24.90;95.40;;;;;;5009230;28;20477;-77
2023/05/14 08:50:04;;;;;;;2.97;2.33;;;25.10;95.10;;;;;;5008144;28;20028;-78
2023/05/14 08:52:30;;;;;;;3.92;2.42;;;25.30;95.30;;;;;;5008621;28;20032;-77
2023/05/14 08:54:56;;;;;;;5.72;3.15;;;25.40;91.60;;;;;;5042741;28;20479;-78
2023/05/14 08:57:23;;;;;;;2.75;2.47;;;25.50;91.90;;;;;;5009822;28;20432;-76
2023/05/14 08:59:49;;;;;;;3.25;2.13;;;25.50;90.30;;;;;;5026279;28;20021;-78
2023/05/14 09:02:16;;;;;;;3.17;2.10;;;25.50;91.30;;;;;;5009268;28;20561;-76
2023/05/14 09:04:41;;;;;;;3.35;2.20;;;25.70;89.50;;;;;;5009941;28;20075;-77
2023/05/14 09:07:07;;;;;;;2.45;2.25;;;25.70;90.30;;;;;;5026541;28;20025;-76
2023/05/14 09:09:32;;;;;;;3.58;2.80;;;25.90;90.00;;;;;;5026257;28;20112;-76
2023/05/14 09:11:58;;;;;;;2.20;2.03;;;25.90;89.70;;;;;;5026407;28;20044;-77
2023/05/14 09:14:23;;;;;;;3.03;2.35;;;25.90;90.80;;;;;;5009002;28;20086;-76
2023/05/14 09:16:49;;;;;;;3.85;2.38;;;26.20;87.00;;;;;;5024244;28;20033;-76
2023/05/14 09:19:17;;;;;;;2.80;2.60;;;26.30;84.20;;;;;;5025854;28;20028;-76
2023/05/14 09:21:43;;;;;;;2.70;2.22;;;26.30;82.30;;;;;;5007032;28;20040;-76
2023/05/14 09:24:09;;;;;;;3.25;2.55;;;26.30;84.50;;;;;;5024845;28;20132;-76
2023/05/14 09:26:35;;;;;;;2.25;2.05;;;26.50;82.20;;;;;;5008541;28;20167;-75
2023/05/14 09:29:00;;;;;;;5.97;2.38;;;26.70;80.50;;;;;;5008186;28;20574;-76
2023/05/14 09:31:30;;;;;;;4.38;2.47;;;26.70;77.70;;;;;;5025807;28;20459;-76
2023/05/14 09:33:56;;;;;;;2.40;2.20;;;26.60;79.40;;;;;;5008016;28;20040;-75
2023/05/14 09:36:23;;;;;;;3.88;2.30;;;26.70;80.40;;;;;;5002301;28;20029;-76
2023/05/14 09:38:49;;;;;;;6.90;2.45;;;27.00;76.60;;;;;;5025908;28;20102;-76
2023/05/14 09:41:15;;;;;;;8.55;2.30;;;27.00;74.80;;;;;;5005489;28;20342;-76
2023/05/14 09:43:40;;;;;;;2.95;1.80;;;27.10;73.10;;;;;;5024912;28;20048;-75
2023/05/14 09:46:06;;;;;;;3.42;2.63;;;27.00;76.10;;;;;;5005146;28;20114;-76
2023/05/14 09:48:31;;;;;;;4.60;2.47;;;27.20;74.60;;;;;;5023926;28;20036;-76
2023/05/14 09:50:58;;;;;;;2.90;2.40;;;27.20;73.60;;;;;;5024390;28;20021;-76
2023/05/14 09:53:24;;;;;;;2.55;2.35;;;27.30;71.70;;;;;;5022560;28;20587;-76
2023/05/14 09:55:50;;;;;;;3.80;2.30;;;27.40;66.90;;;;;;5036705;28;20029;-76
2023/05/14 09:58:15;;;;;;;2.75;1.77;;;27.40;66.20;;;;;;5007598;28;20103;-77
2023/05/14 10:00:45;;;;;;;8.38;2.50;;;27.50;67.60;;;;;;5041037;28;20063;-76
2023/05/14 10:03:12;;;;;;;3.20;2.00;;;27.50;66.80;;;;;;5023556;28;20051;-76
2023/05/14 10:05:39;;;;;;;1.92;1.80;;;27.50;67.40;;;;;;5022988;28;20441;-76
2023/05/14 10:08:23;;;;;;;3.03;1.95;;;27.50;66.30;;;;;;5007458;28;20033;-76
2023/05/14 10:10:50;;;;;;;5.78;2.63;;;27.50;66.80;;;;;;5023356;28;20467;-76
2023/05/14 10:13:18;;;;;;;2.95;2.40;;;27.60;63.90;;;;;;4984123;28;1079510;-77
2023/05/14 10:15:48;;;;;;;2.50;2.15;;;27.60;67.30;;;;;;5007881;28;20059;-77
2023/05/14 10:18:16;;;;;;;3.00;2.00;;;27.70;68.30;;;;;;5040960;28;20025;-76
2023/05/14 10:20:42;;;;;;;3.72;2.30;;;27.90;65.40;;;;;;5023541;28;20082;-76
2023/05/14 10:23:07;;;;;;;2.35;1.80;;;27.90;66.00;;;;;;5008066;28;20032;-78
2023/05/14 10:25:34;;;;;;;2.10;1.90;;;28.00;67.60;;;;;;5007411;28;20029;-77
2023/05/14 10:27:59;;;;;;;5.43;2.20;;;28.00;69.30;;;;;;5008513;28;20029;-77
2023/05/14 10:30:25;;;;;;;2.65;2.13;;;28.20;65.20;;;;;;5023067;28;20033;-77
2023/05/14 10:33:17;;;;;;;2.17;1.95;;;28.60;61.40;;;;;;5036229;28;20394;-77
2023/05/14 10:36:04;;;;;;;3.08;2.33;;;28.60;60.40;;;;;;5039232;28;20037;-78
2023/05/14 10:38:33;;;;;;;4.43;2.60;;;28.50;60.00;;;;;;5037068;28;20036;-77
2023/05/14 10:41:01;;;;;;;3.85;2.42;;;28.70;59.90;;;;;;5039109;28;20037;-78
2023/05/14 10:43:29;;;;;;;3.03;2.72;;;28.70;59.10;;;;;;5039415;28;20064;-77
2023/05/14 10:45:58;;;;;;;4.70;2.90;;;28.70;60.30;;;;;;5036514;28;20425;-77
2023/05/14 10:48:24;;;;;;;2.75;2.40;;;28.70;62.30;;;;;;5008247;28;20599;-77
2023/05/14 10:50:56;;;;;;;4.80;2.50;;;28.70;63.20;;;;;;5023918;28;20104;-77
2023/05/14 10:53:33;;;;;;;2.47;2.20;;;28.80;59.80;;;;;;5008013;28;20076;-77
2023/05/14 10:56:05;;;;;;;4.15;2.25;;;28.90;60.20;;;;;;5001864;28;20048;-77
2023/05/14 10:58:32;;;;;;;3.17;2.20;;;29.00;61.10;;;;;;5024464;28;20036;-77
2023/05/14 11:00:58;;;;;;;3.28;2.97;;;29.10;60.70;;;;;;5038835;28;20554;-77
2023/05/14 11:03:24;;;;;;;2.60;2.40;;;29.30;63.10;;;;;;5007607;28;20108;-77
2023/05/14 11:05:50;;;;;;;6.18;2.42;;;29.40;62.70;;;;;;5037648;28;20104;-76
2023/05/14 11:08:15;;;;;;;5.30;2.45;;;29.50;57.80;;;;;;5032788;28;20025;-77
2023/05/14 11:10:41;;;;;;;2.42;2.22;;;29.50;59.00;;;;;;5024230;28;20108;-76
2023/05/14 11:13:07;;;;;;;2.92;2.63;;;29.50;59.70;;;;;;5024682;28;20071;-77
2023/05/14 11:15:32;;;;;;;3.47;2.33;;;29.60;59.00;;;;;;5027274;28;20488;-77
2023/05/14 11:17:58;;;;;;;3.55;2.40;;;29.70;61.10;;;;;;5011110;28;20029;-77
2023/05/14 11:20:24;;;;;;;4.05;2.50;;;30.00;59.90;;;;;;5020527;28;20028;-77
2023/05/14 11:22:52;;;;;;;4.97;3.20;;;30.10;57.00;;;;;;5037447;28;20524;-77
2023/05/14 11:25:18;;;;;;;2.92;2.63;;;30.30;56.70;;;;;;5010392;28;20075;-77
2023/05/14 11:27:44;;;;;;;5.72;2.80;;;30.50;53.20;;;;;;5025636;28;20100;-77
2023/05/14 11:30:16;;;;;;;2.92;2.72;;;30.10;54.10;;;;;;5027814;28;20037;-76
2023/05/14 11:32:45;;;;;;;3.30;3.00;;;30.20;53.70;;;;;;5026390;28;20443;-77
2023/05/14 11:35:12;;;;;;;3.75;2.75;;;30.30;52.30;;;;;;5013252;28;20029;-77
2023/05/14 11:37:37;;;;;;;6.00;3.63;;;30.20;49.70;;;;;;5027072;28;20025;-76
2023/05/14 11:40:08;;;;;;;8.05;2.83;;;30.00;50.30;;;;;;5009324;28;20075;-77
2023/05/14 11:42:34;;;;;;;5.57;2.80;;;30.00;48.40;;;;;;5042116;28;20469;-77
2023/05/14 11:45:00;;;;;;;4.63;2.60;;;30.10;49.20;;;;;;5042515;28;20033;-78
2023/05/14 11:47:25;;;;;;;7.90;2.88;;;30.00;48.30;;;;;;5026940;28;20484;-76
2023/05/14 11:49:51;;;;;;;10.50;2.80;;;30.10;49.00;;;;;;5025897;28;20041;-77
2023/05/14 11:52:18;;;;;;;7.97;2.33;;;30.10;50.70;;;;;;5026460;28;20079;-78
2023/05/14 11:54:46;;;;;;;4.82;2.88;;;30.30;53.80;;;;;;5024358;28;20033;-78
2023/05/14 11:57:16;;;;;;;5.60;2.58;;;30.50;50.50;;;;;;5000641;28;20036;-78
2023/05/14 11:59:41;;;;;;;6.72;2.40;;;30.60;53.20;;;;;;5002801;28;20037;-77
2023/05/14 12:02:09;;;;;;;3.03;2.08;;;30.90;51.10;;;;;;5026446;28;20060;-82
2023/05/14 12:04:35;;;;;;;3.05;2.42;;;31.00;52.60;;;;;;5010649;28;20485;-82
2023/05/14 12:07:10;;;;;;;2.60;2.40;;;31.00;49.60;;;;;;5026242;28;20052;-79
2023/05/14 12:09:41;;;;;;;4.03;2.30;;;31.00;51.40;;;;;;5027639;28;20032;-82
2023/05/14 12:12:10;;;;;;;2.45;1.92;;;31.20;50.70;;;;;;5015229;28;20045;-82
2023/05/14 12:14:41;;;;;;;2.97;2.55;;;31.30;49.40;;;;;;5040731;28;20489;-82
2023/05/14 12:17:14;;;;;;;3.70;2.22;;;31.50;50.30;;;;;;5009152;28;20509;-84
2023/05/14 12:19:40;;;;;;;2.55;2.20;;;31.60;47.20;;;;;;5026997;28;20075;-84
2023/05/14 12:22:06;;;;;;;4.53;2.10;;;31.70;46.80;;;;;;5009058;28;20037;-84
2023/05/14 12:24:32;;;;;;;6.07;2.38;;;31.50;46.30;;;;;;5024488;28;20455;-81
2023/05/14 12:27:00;;;;;;;4.22;2.55;;;31.80;45.70;;;;;;5025876;28;20025;-82
2023/05/14 12:29:25;;;;;;;7.20;2.25;;;31.70;45.30;;;;;;5010758;28;20182;-81
2023/05/14 12:31:51;;;;;;;3.13;2.13;;;31.60;46.10;;;;;;5037170;28;20087;-81
2023/05/14 12:34:16;;;;;;;5.18;2.38;;;31.60;45.10;;;;;;5042704;28;20025;-81
2023/05/14 12:36:42;;;;;;;4.50;2.55;;;31.30;44.00;;;;;;5024386;28;20119;-81